Time;durP1;ratioP1;P1;durP2;ratioP2;P2;SDS_P1;SDS_P2;PMS_P1;PMS_P2;Temp;Humidity;BMP_temperature;BMP_pressure;BME280_temperature;BME280_humidity;BME280_pressure;Samples;Min_cycle;Max_cycle;Signal;HPM_P1;HPM_P2
2021/12/04 00:01:48;;;;;;;11.20;8.33;;;2.80;99.90;;;;;;650121;216;26520;-80
2021/12/04 00:04:20;;;;;;;10.70;9.60;;;2.80;99.90;;;;;;650149;216;26542;-80
2021/12/04 00:06:43;;;;;;;13.27;9.67;;;2.70;99.90;;;;;;649663;221;26537;-80
2021/12/04 00:09:11;;;;;;;12.00;9.77;;;2.70;99.90;;;;;;650151;221;26541;-79
2021/12/04 00:11:41;;;;;;;10.80;9.60;;;2.60;99.90;;;;;;649912;216;26533;-80
2021/12/04 00:14:06;;;;;;;12.03;8.73;;;2.60;99.90;;;;;;650106;221;26567;-80
2021/12/04 00:16:33;;;;;;;10.83;9.67;;;2.70;99.90;;;;;;650284;217;26542;-80
2021/12/04 00:19:00;;;;;;;11.33;9.47;;;2.60;99.90;;;;;;650256;221;26869;-80
2021/12/04 00:21:28;;;;;;;14.57;9.53;;;2.70;99.90;;;;;;650294;221;26518;-80
2021/12/04 00:23:55;;;;;;;13.20;10.33;;;2.70;99.90;;;;;;650303;221;27019;-80
2021/12/04 00:26:22;;;;;;;16.33;10.03;;;2.80;99.90;;;;;;650271;221;26536;-81
2021/12/04 00:28:50;;;;;;;11.67;9.53;;;2.70;99.90;;;;;;650235;221;26812;-80
2021/12/04 00:31:17;;;;;;;11.20;9.77;;;2.80;99.90;;;;;;650292;221;26569;-80
2021/12/04 00:33:46;;;;;;;12.60;10.67;;;2.80;99.90;;;;;;650063;221;27215;-80
2021/12/04 00:36:26;;;;;;;11.47;9.90;;;2.70;99.90;;;;;;649704;221;26547;-80
2021/12/04 00:51:27;;;;;;;13.27;9.37;;;2.70;99.90;;;;;;651162;221;26812;-81
2021/12/04 00:53:54;;;;;;;11.50;8.97;;;2.80;99.90;;;;;;650941;221;26515;-80
2021/12/04 00:56:22;;;;;;;10.63;9.53;;;2.70;99.90;;;;;;650877;221;26753;-80
2021/12/04 00:58:49;;;;;;;11.83;9.57;;;2.60;99.90;;;;;;650592;217;26604;-80
2021/12/04 01:01:16;;;;;;;11.60;9.53;;;2.70;99.90;;;;;;650605;221;26832;-80
2021/12/04 01:03:46;;;;;;;11.77;9.23;;;2.80;99.90;;;;;;650532;217;26566;-80
2021/12/04 01:06:14;;;;;;;13.03;8.50;;;2.80;99.90;;;;;;650162;221;26782;-80
2021/12/04 01:08:42;;;;;;;11.90;9.10;;;3.00;99.90;;;;;;650062;221;26557;-80
2021/12/04 01:11:09;;;;;;;9.97;8.97;;;3.10;99.90;;;;;;650118;221;26516;-80
2021/12/04 01:13:37;;;;;;;11.73;9.70;;;3.10;99.90;;;;;;650202;221;26533;-81
2021/12/04 01:16:04;;;;;;;12.13;10.00;;;3.20;99.90;;;;;;650168;221;26525;-81
2021/12/04 01:18:32;;;;;;;11.67;9.57;;;3.00;99.90;;;;;;650113;221;26822;-80
2021/12/04 01:20:59;;;;;;;16.57;8.83;;;3.00;99.90;;;;;;650242;221;26528;-80
2021/12/04 01:23:26;;;;;;;13.27;10.00;;;3.20;99.90;;;;;;649992;221;26548;-80
2021/12/04 01:25:54;;;;;;;12.30;10.47;;;3.20;99.90;;;;;;649890;221;26816;-80
2021/12/04 01:28:21;;;;;;;10.73;9.13;;;3.00;99.90;;;;;;649851;221;26583;-80
2021/12/04 01:30:48;;;;;;;10.93;9.77;;;2.90;99.90;;;;;;649831;221;26904;-80
2021/12/04 01:33:15;;;;;;;11.83;10.00;;;2.80;99.90;;;;;;649904;217;26571;-80
2021/12/04 01:35:42;;;;;;;11.73;9.77;;;2.80;99.90;;;;;;649844;217;26852;-80
2021/12/04 01:38:11;;;;;;;11.27;9.97;;;2.80;99.90;;;;;;649867;221;26585;-80
2021/12/04 01:40:38;;;;;;;13.20;9.93;;;3.10;99.90;;;;;;649881;221;26572;-80
2021/12/04 01:43:07;;;;;;;11.20;9.63;;;3.10;99.90;;;;;;649888;217;26570;-80
2021/12/04 01:45:33;;;;;;;11.20;9.77;;;3.00;99.90;;;;;;649858;221;26760;-80
2021/12/04 01:48:00;;;;;;;10.67;9.60;;;3.00;99.90;;;;;;649924;221;26597;-80
2021/12/04 01:50:27;;;;;;;13.07;10.27;;;2.90;99.90;;;;;;649947;221;26590;-80
2021/12/04 01:52:56;;;;;;;12.53;11.13;;;3.20;99.90;;;;;;649847;221;26595;-80
2021/12/04 01:55:27;;;;;;;14.17;11.03;;;3.10;99.90;;;;;;649813;221;26806;-78
2021/12/04 01:57:54;;;;;;;12.70;9.87;;;2.80;99.90;;;;;;650195;219;26565;-81
2021/12/04 02:00:21;;;;;;;12.43;10.90;;;2.80;99.90;;;;;;651709;220;26518;-81
2021/12/04 02:02:49;;;;;;;12.83;10.57;;;2.90;99.90;;;;;;651159;221;26515;-80
2021/12/04 02:05:17;;;;;;;16.23;10.90;;;2.90;99.90;;;;;;650951;221;26507;-80
2021/12/04 02:07:44;;;;;;;13.77;10.60;;;3.10;99.90;;;;;;650719;221;26527;-81
2021/12/04 02:10:11;;;;;;;14.37;10.80;;;2.90;99.90;;;;;;650600;221;26801;-80
2021/12/04 02:12:38;;;;;;;14.17;10.70;;;3.00;99.90;;;;;;650634;221;26632;-82
2021/12/04 02:15:06;;;;;;;12.03;10.77;;;2.90;99.90;;;;;;650661;221;26818;-82
2021/12/04 02:17:34;;;;;;;13.97;11.30;;;3.00;99.90;;;;;;650294;221;26762;-82
2021/12/04 02:20:01;;;;;;;12.20;11.00;;;3.00;99.90;;;;;;650241;221;26554;-82
2021/12/04 02:22:28;;;;;;;13.07;10.90;;;3.00;99.90;;;;;;650293;221;27169;-82
2021/12/04 02:24:55;;;;;;;13.63;11.40;;;2.90;99.90;;;;;;650216;221;26732;-81
2021/12/04 02:27:22;;;;;;;13.37;11.23;;;3.00;99.90;;;;;;650158;221;26525;-82
2021/12/04 02:29:51;;;;;;;12.80;10.83;;;3.10;99.90;;;;;;650227;221;26597;-82
2021/12/04 02:32:19;;;;;;;12.37;11.07;;;3.00;99.90;;;;;;650238;221;26533;-82
2021/12/04 02:34:46;;;;;;;13.43;11.33;;;3.00;99.90;;;;;;650000;221;26901;-82
2021/12/04 02:37:13;;;;;;;12.53;11.23;;;3.00;99.90;;;;;;649876;217;26571;-82
2021/12/04 02:39:45;;;;;;;14.53;11.50;;;3.10;99.90;;;;;;649863;221;26794;-82
2021/12/04 02:42:08;;;;;;;14.23;11.20;;;3.20;99.90;;;;;;649542;221;26547;-82
2021/12/04 02:44:37;;;;;;;14.17;10.83;;;3.20;99.90;;;;;;648187;221;27278;-82
2021/12/04 02:47:04;;;;;;;12.87;11.17;;;3.20;99.90;;;;;;649832;221;26565;-82
2021/12/04 02:49:31;;;;;;;12.30;11.00;;;3.00;99.90;;;;;;649883;221;26617;-82
2021/12/04 02:52:04;;;;;;;13.90;12.30;;;3.10;99.90;;;;;;637847;221;26827;-82
2021/12/04 02:54:31;;;;;;;13.97;11.30;;;3.10;99.90;;;;;;649881;221;26757;-82
2021/12/04 02:56:58;;;;;;;13.13;10.53;;;3.10;99.90;;;;;;649844;221;26561;-82
2021/12/04 02:59:26;;;;;;;14.83;11.57;;;3.30;99.90;;;;;;649766;217;26778;-81
2021/12/04 03:01:55;;;;;;;13.00;11.63;;;3.00;99.90;;;;;;649792;217;26570;-82
2021/12/04 03:04:22;;;;;;;14.10;11.87;;;3.20;99.90;;;;;;649593;221;26834;-82
2021/12/04 03:06:47;;;;;;;14.00;11.00;;;3.40;99.90;;;;;;649606;221;26566;-82
2021/12/04 03:09:15;;;;;;;14.80;11.40;;;3.50;99.90;;;;;;649904;219;26969;-82
2021/12/04 03:11:42;;;;;;;14.00;11.37;;;3.40;99.90;;;;;;651745;220;27285;-82
2021/12/04 03:14:10;;;;;;;13.57;11.33;;;3.60;99.90;;;;;;651194;221;26527;-82
2021/12/04 03:16:37;;;;;;;12.97;10.87;;;3.60;99.90;;;;;;650900;221;26740;-82
2021/12/04 03:19:04;;;;;;;13.07;11.67;;;3.40;99.90;;;;;;650544;221;26823;-81
2021/12/04 03:21:33;;;;;;;17.20;10.80;;;3.40;99.90;;;;;;650498;221;26822;-82
2021/12/04 03:24:03;;;;;;;14.03;11.10;;;3.00;99.90;;;;;;650516;221;26597;-82
2021/12/04 03:26:27;;;;;;;13.23;11.50;;;3.00;99.90;;;;;;650228;221;26600;-82
2021/12/04 03:28:56;;;;;;;12.73;10.90;;;3.00;99.90;;;;;;650251;221;26567;-82
2021/12/04 03:31:38;;;;;;;16.40;11.93;;;3.30;99.90;;;;;;650113;221;26742;-82
2021/12/04 03:41:28;;;;;;;13.77;11.47;;;3.10;99.90;;;;;;650027;221;26524;-81
2021/12/04 03:43:55;;;;;;;13.60;11.90;;;3.20;99.90;;;;;;650003;221;26849;-82
2021/12/04 03:46:24;;;;;;;14.23;11.97;;;3.40;99.90;;;;;;649942;217;26567;-82
2021/12/04 03:48:51;;;;;;;13.43;11.80;;;3.30;99.90;;;;;;649764;221;26580;-81
2021/12/04 03:51:19;;;;;;;15.57;12.00;;;3.10;99.90;;;;;;649930;221;26555;-82
2021/12/04 03:53:47;;;;;;;13.93;12.33;;;3.30;99.90;;;;;;649791;221;26548;-80
2021/12/04 03:56:18;;;;;;;14.23;12.23;;;3.40;99.90;;;;;;649853;221;26556;-80
2021/12/04 03:58:42;;;;;;;14.77;12.20;;;3.40;99.90;;;;;;649611;221;26573;-80
2021/12/04 04:01:09;;;;;;;14.97;11.47;;;3.50;99.90;;;;;;649852;221;26552;-80
2021/12/04 04:03:36;;;;;;;14.93;11.70;;;3.50;99.90;;;;;;649831;221;26803;-80
2021/12/04 04:06:04;;;;;;;14.30;11.83;;;3.50;99.90;;;;;;649861;221;26792;-80
2021/12/04 04:08:31;;;;;;;13.43;11.47;;;3.60;99.90;;;;;;649844;221;26782;-80
2021/12/04 04:10:58;;;;;;;12.07;10.87;;;3.60;99.90;;;;;;649909;221;26578;-78
2021/12/04 04:13:25;;;;;;;12.97;11.50;;;3.70;99.90;;;;;;649796;221;26778;-80
2021/12/04 04:15:53;;;;;;;15.30;12.70;;;3.60;99.90;;;;;;649839;221;26784;-80
2021/12/04 04:18:20;;;;;;;14.37;12.07;;;3.70;99.90;;;;;;649800;221;26897;-80
2021/12/04 04:20:47;;;;;;;12.77;11.47;;;3.70;99.90;;;;;;649882;219;26560;-80
2021/12/04 04:23:14;;;;;;;12.63;11.20;;;3.70;99.90;;;;;;651739;220;26870;-80
2021/12/04 04:25:42;;;;;;;12.97;11.40;;;3.70;99.90;;;;;;651089;221;26508;-80
2021/12/04 04:28:10;;;;;;;16.57;12.10;;;3.50;99.90;;;;;;650758;216;26542;-79
2021/12/04 04:30:38;;;;;;;14.40;11.90;;;3.50;99.90;;;;;;650706;221;26563;-80
2021/12/04 04:33:07;;;;;;;13.07;11.60;;;3.80;99.90;;;;;;650511;221;26547;-80
2021/12/04 04:35:35;;;;;;;14.23;12.27;;;3.80;99.90;;;;;;650471;221;26615;-80
2021/12/04 04:38:12;;;;;;;12.47;10.57;;;3.90;99.90;;;;;;650415;221;26609;-80
2021/12/04 04:57:28;;;;;;;15.33;11.83;;;3.70;99.90;;;;;;649286;221;26509;-80
2021/12/04 05:11:41;;;;;;;15.87;13.60;;;3.30;99.90;;;;;;649679;221;26575;-80
2021/12/04 05:14:05;;;;;;;16.67;14.53;;;3.40;99.90;;;;;;649317;221;26547;-80
2021/12/04 05:16:42;;;;;;;15.63;13.50;;;3.50;99.90;;;;;;649738;221;26567;-80
2021/12/04 05:19:11;;;;;;;16.20;13.17;;;3.70;99.90;;;;;;648753;221;26886;-80
2021/12/04 05:21:26;;;;;;;18.30;13.60;;;3.70;99.90;;;;;;648723;221;26570;-80
2021/12/04 05:23:53;;;;;;;14.73;12.80;;;4.00;99.90;;;;;;649806;221;26852;-81
2021/12/04 05:26:22;;;;;;;15.53;13.63;;;3.90;99.90;;;;;;649727;221;26588;-80
2021/12/04 05:28:48;;;;;;;17.47;14.00;;;3.80;99.90;;;;;;649707;221;26606;-80
2021/12/04 05:31:16;;;;;;;16.97;13.80;;;3.80;99.90;;;;;;649947;221;26795;-80
2021/12/04 05:33:43;;;;;;;16.83;14.00;;;3.90;99.90;;;;;;651173;219;26551;-80
2021/12/04 05:36:10;;;;;;;14.43;12.90;;;4.20;99.90;;;;;;651145;220;27249;-80
2021/12/04 05:38:37;;;;;;;15.87;13.60;;;4.30;99.90;;;;;;650872;221;26795;-79
2021/12/04 05:41:04;;;;;;;15.50;12.43;;;4.50;99.90;;;;;;650741;221;26807;-80
2021/12/04 05:43:34;;;;;;;14.73;12.83;;;4.10;99.90;;;;;;650494;221;26548;-79
2021/12/04 05:46:09;;;;;;;12.83;11.60;;;4.00;99.90;;;;;;650408;221;26564;-80
2021/12/04 05:48:39;;;;;;;14.67;12.57;;;4.20;99.90;;;;;;649808;221;26647;-80
2021/12/04 05:51:27;;;;;;;17.40;13.37;;;4.10;99.90;;;;;;649670;221;26568;-79
2021/12/04 05:54:00;;;;;;;16.00;13.77;;;4.30;99.90;;;;;;649354;221;26525;-80
2021/12/04 05:56:28;;;;;;;17.27;13.13;;;4.10;99.90;;;;;;650128;221;26535;-80
2021/12/04 05:58:55;;;;;;;14.03;12.63;;;3.70;99.90;;;;;;650050;221;26546;-80
2021/12/04 06:01:23;;;;;;;15.20;12.87;;;3.60;99.90;;;;;;650175;221;26501;-80
2021/12/04 06:03:51;;;;;;;15.60;14.00;;;3.70;99.90;;;;;;650133;221;26525;-80
2021/12/04 06:06:19;;;;;;;14.40;12.37;;;3.70;99.90;;;;;;650134;221;26520;-78
2021/12/04 06:08:46;;;;;;;14.63;13.00;;;3.80;99.90;;;;;;650018;221;26557;-78
2021/12/04 06:11:13;;;;;;;13.27;10.87;;;4.00;99.90;;;;;;649876;221;26783;-79
2021/12/04 06:13:40;;;;;;;12.43;11.23;;;4.00;99.90;;;;;;649834;221;26589;-78
2021/12/04 06:16:07;;;;;;;13.23;11.00;;;4.10;99.90;;;;;;649875;221;26576;-78
2021/12/04 06:18:34;;;;;;;12.30;11.20;;;4.40;99.90;;;;;;649794;221;26802;-79
2021/12/04 06:23:34;;;;;;;11.37;10.17;;;4.10;99.90;;;;;;649868;221;26579;-78
2021/12/04 06:26:02;;;;;;;12.83;11.13;;;4.20;99.90;;;;;;649822;221;26817;-78
2021/12/04 06:28:29;;;;;;;11.33;10.10;;;4.20;99.90;;;;;;649745;221;26570;-79
2021/12/04 06:30:58;;;;;;;11.60;10.40;;;3.80;99.90;;;;;;649842;221;26585;-78
2021/12/04 06:33:23;;;;;;;11.00;9.57;;;3.60;99.90;;;;;;649677;221;26588;-79
2021/12/04 06:35:52;;;;;;;11.20;10.10;;;3.60;99.90;;;;;;649834;221;26807;-78
2021/12/04 06:38:18;;;;;;;12.43;10.27;;;3.70;99.90;;;;;;649755;217;26592;-79
2021/12/04 06:40:45;;;;;;;12.43;10.27;;;3.60;99.90;;;;;;649818;221;26765;-78
2021/12/04 06:43:12;;;;;;;12.60;10.67;;;3.50;99.90;;;;;;649704;221;26563;-78
2021/12/04 06:45:41;;;;;;;11.43;10.23;;;3.70;99.90;;;;;;651358;217;26584;-79
2021/12/04 06:48:11;;;;;;;12.10;10.83;;;4.30;99.90;;;;;;651130;221;26591;-79
2021/12/04 06:50:41;;;;;;;12.33;10.80;;;4.20;99.90;;;;;;650513;221;26506;-78
2021/12/04 06:53:13;;;;;;;11.67;10.40;;;4.20;99.90;;;;;;650215;221;26570;-79
2021/12/04 06:55:38;;;;;;;14.33;11.67;;;4.30;99.90;;;;;;649483;221;26588;-79
2021/12/04 06:57:59;;;;;;;12.90;10.63;;;4.30;99.90;;;;;;649697;221;26633;-79
2021/12/04 07:00:27;;;;;;;12.17;10.87;;;4.20;99.90;;;;;;650381;221;26614;-79
2021/12/04 07:02:54;;;;;;;12.90;11.57;;;4.20;99.90;;;;;;650208;221;26474;-79
2021/12/04 07:05:21;;;;;;;12.67;11.37;;;4.20;99.90;;;;;;650128;217;26532;-79
2021/12/04 07:07:48;;;;;;;12.77;10.83;;;4.30;99.90;;;;;;650097;221;26817;-79
2021/12/04 07:10:16;;;;;;;12.83;10.93;;;4.10;99.90;;;;;;650111;221;26533;-79
2021/12/04 07:12:43;;;;;;;12.67;10.17;;;4.00;99.90;;;;;;650141;217;26759;-79
2021/12/04 07:15:10;;;;;;;11.93;10.73;;;4.10;99.90;;;;;;650199;221;26510;-78
2021/12/04 07:17:37;;;;;;;12.03;10.33;;;4.10;99.90;;;;;;650066;221;26847;-77
2021/12/04 07:20:05;;;;;;;11.73;10.53;;;4.10;99.90;;;;;;650105;221;26764;-78
2021/12/04 07:22:32;;;;;;;11.97;9.83;;;3.90;99.90;;;;;;649851;221;26571;-79
2021/12/04 07:24:59;;;;;;;13.70;11.20;;;4.00;99.90;;;;;;649785;221;26798;-78
2021/12/04 07:27:28;;;;;;;12.07;10.03;;;3.70;99.90;;;;;;649803;221;26603;-78
2021/12/04 07:29:53;;;;;;;11.83;9.87;;;3.80;99.90;;;;;;650260;221;26804;-76
2021/12/04 07:32:20;;;;;;;11.83;9.43;;;3.80;99.90;;;;;;650092;221;26587;-79
2021/12/04 07:34:48;;;;;;;10.87;9.20;;;3.90;99.90;;;;;;649796;221;26841;-79
2021/12/04 07:37:15;;;;;;;11.97;8.87;;;3.80;99.90;;;;;;649780;221;26588;-79
2021/12/04 07:39:42;;;;;;;11.50;9.63;;;4.00;99.90;;;;;;649745;217;26942;-79
2021/12/04 07:42:10;;;;;;;11.67;8.93;;;4.20;99.90;;;;;;649729;221;26620;-79
2021/12/04 07:44:38;;;;;;;11.13;9.13;;;4.00;99.90;;;;;;649729;217;26559;-78
2021/12/04 07:47:05;;;;;;;11.13;9.93;;;4.00;99.90;;;;;;649762;221;26611;-79
2021/12/04 07:49:32;;;;;;;12.53;10.53;;;4.10;99.90;;;;;;649808;221;26552;-79
2021/12/04 07:52:00;;;;;;;11.03;9.00;;;4.20;99.90;;;;;;649803;217;26812;-79
2021/12/04 07:54:27;;;;;;;9.83;8.50;;;4.00;99.90;;;;;;649805;221;26587;-78
2021/12/04 07:56:54;;;;;;;10.90;8.80;;;4.00;99.90;;;;;;650997;219;26822;-79
2021/12/04 07:59:21;;;;;;;10.73;8.07;;;4.10;99.90;;;;;;651111;220;26600;-79
2021/12/04 08:01:48;;;;;;;10.10;8.50;;;4.10;99.90;;;;;;650739;221;26512;-79
2021/12/04 08:04:16;;;;;;;10.33;9.00;;;4.20;99.90;;;;;;650669;221;27156;-78
2021/12/04 08:06:44;;;;;;;9.60;8.57;;;4.20;99.90;;;;;;650332;221;26575;-79
2021/12/04 08:09:20;;;;;;;10.70;8.80;;;4.40;99.90;;;;;;650308;216;26608;-79
2021/12/04 08:11:50;;;;;;;9.10;8.30;;;4.40;99.90;;;;;;648248;221;26555;-78
2021/12/04 08:14:15;;;;;;;8.43;7.50;;;4.70;99.90;;;;;;648858;221;26578;-81
2021/12/04 08:16:43;;;;;;;9.13;8.20;;;4.40;99.90;;;;;;648646;221;27260;-80
2021/12/04 08:19:10;;;;;;;11.13;8.73;;;4.40;99.90;;;;;;648585;217;26552;-81
2021/12/04 08:21:38;;;;;;;9.00;8.10;;;4.50;99.90;;;;;;648648;222;26514;-81
2021/12/04 08:24:07;;;;;;;9.23;8.03;;;4.70;99.90;;;;;;648628;221;26534;-80
2021/12/04 08:26:35;;;;;;;10.33;7.97;;;4.60;99.90;;;;;;648577;222;26810;-81
2021/12/04 08:29:03;;;;;;;10.70;7.90;;;5.00;99.90;;;;;;648562;221;26543;-80
2021/12/04 08:31:30;;;;;;;9.70;8.07;;;5.00;99.90;;;;;;648613;222;26598;-81
2021/12/04 08:33:57;;;;;;;9.43;7.83;;;5.00;99.90;;;;;;648315;222;26502;-81
2021/12/04 08:36:24;;;;;;;8.50;7.47;;;4.90;99.90;;;;;;648257;222;26868;-81
2021/12/04 08:38:51;;;;;;;8.47;7.60;;;4.90;99.90;;;;;;648235;218;26566;-81
2021/12/04 08:41:19;;;;;;;7.97;7.00;;;5.00;99.90;;;;;;648287;221;26562;-81
2021/12/04 08:43:47;;;;;;;9.90;7.57;;;4.80;99.90;;;;;;648281;217;26502;-82
2021/12/04 08:46:14;;;;;;;9.60;7.60;;;4.80;99.90;;;;;;648297;222;26522;-81
2021/12/04 08:48:41;;;;;;;10.70;7.77;;;4.80;99.90;;;;;;648252;222;26787;-81
2021/12/04 08:51:09;;;;;;;10.93;7.87;;;5.00;99.90;;;;;;648308;222;26521;-81
2021/12/04 08:53:37;;;;;;;8.03;7.23;;;5.10;99.90;;;;;;648335;222;26566;-81
2021/12/04 08:56:05;;;;;;;9.10;7.70;;;4.60;99.90;;;;;;648287;222;26572;-81
2021/12/04 08:58:35;;;;;;;9.67;7.80;;;4.60;99.90;;;;;;648303;222;26806;-81
2021/12/04 09:00:59;;;;;;;9.60;8.40;;;4.70;99.90;;;;;;648189;221;26585;-81
2021/12/04 09:03:27;;;;;;;9.37;7.70;;;4.70;99.90;;;;;;648169;221;26747;-81
2021/12/04 09:05:54;;;;;;;9.73;8.13;;;4.70;99.90;;;;;;648215;221;26787;-81
2021/12/04 09:08:22;;;;;;;9.10;8.20;;;5.00;99.90;;;;;;649387;219;26609;-81
2021/12/04 09:10:50;;;;;;;9.20;7.90;;;5.00;99.90;;;;;;649850;221;26585;-81
2021/12/04 09:13:17;;;;;;;11.67;8.03;;;5.00;99.90;;;;;;649509;221;26554;-80
2021/12/04 09:15:45;;;;;;;11.63;8.60;;;5.10;99.90;;;;;;649333;221;26790;-81
2021/12/04 09:18:12;;;;;;;9.33;7.93;;;5.40;99.90;;;;;;649001;218;26568;-81
2021/12/04 09:20:39;;;;;;;9.47;8.47;;;5.60;99.90;;;;;;648957;222;26562;-82
2021/12/04 09:23:13;;;;;;;10.87;9.37;;;5.20;99.90;;;;;;649008;222;26585;-85
2021/12/04 09:25:38;;;;;;;10.67;9.20;;;4.70;99.90;;;;;;648438;221;26566;-81
2021/12/04 09:28:13;;;;;;;11.50;9.03;;;4.70;99.90;;;;;;648397;221;26772;-81
2021/12/04 09:30:49;;;;;;;11.27;10.07;;;4.90;99.90;;;;;;647887;221;26519;-81
2021/12/04 09:33:32;;;;;;;10.77;9.60;;;5.30;99.90;;;;;;647466;221;26500;-81
2021/12/04 09:35:53;;;;;;;10.60;9.40;;;5.50;99.90;;;;;;647079;222;26508;-81
2021/12/04 10:01:14;;;;;;;10.27;9.17;;;5.70;99.90;;;;;;648227;222;26578;-81
2021/12/04 10:03:48;;;;;;;12.37;9.90;;;5.40;99.90;;;;;;647288;221;26594;-81
2021/12/04 10:06:28;;;;;;;10.67;9.37;;;5.70;99.90;;;;;;647564;221;26807;-81
2021/12/04 10:12:10;;;;;;;12.63;10.97;;;5.80;99.90;;;;;;648205;222;26570;-81
2021/12/04 10:17:03;;;;;;;10.60;9.37;;;5.70;99.90;;;;;;648196;222;26534;-82
2021/12/04 10:19:18;;;;;;;11.60;10.40;;;6.00;99.90;;;;;;647376;219;26601;-80
2021/12/04 10:21:48;;;;;;;15.40;12.40;;;5.90;99.90;;;;;;649467;221;26580;-81
2021/12/04 10:24:29;;;;;;;14.40;10.77;;;5.90;99.90;;;;;;648894;221;26556;-81
2021/12/04 10:32:24;;;;;;;10.83;9.70;;;6.10;99.90;;;;;;648389;221;26554;-82
2021/12/04 10:34:29;;;;;;;12.43;10.90;;;6.30;99.90;;;;;;640165;222;26579;-83
2021/12/04 10:37:05;;;;;;;13.77;11.20;;;6.10;99.90;;;;;;648846;221;26574;-83
2021/12/04 10:39:32;;;;;;;13.73;11.03;;;6.10;99.90;;;;;;643994;221;26545;-82
2021/12/04 10:42:02;;;;;;;11.63;10.30;;;6.20;99.90;;;;;;646180;221;26736;-83
2021/12/04 10:44:26;;;;;;;11.93;10.20;;;6.10;99.90;;;;;;641420;222;26588;-83
2021/12/04 10:46:55;;;;;;;12.10;10.73;;;6.10;99.90;;;;;;647439;222;26798;-82
2021/12/04 10:49:35;;;;;;;11.07;9.70;;;6.30;99.90;;;;;;642536;222;26574;-82
2021/12/04 10:52:03;;;;;;;10.67;9.67;;;6.40;99.90;;;;;;647786;221;26588;-82
2021/12/04 10:54:27;;;;;;;10.67;9.43;;;6.30;99.90;;;;;;651122;221;26522;-82
2021/12/04 10:57:14;;;;;;;11.40;10.03;;;5.90;99.90;;;;;;650837;221;26777;-83
2021/12/04 10:59:36;;;;;;;10.53;9.47;;;6.00;99.90;;;;;;635495;226;26597;-82
2021/12/04 11:02:05;;;;;;;11.03;9.93;;;6.10;99.90;;;;;;636577;226;26570;-81
2021/12/04 11:04:37;;;;;;;11.03;9.90;;;6.20;99.90;;;;;;637767;222;26557;-83
2021/12/04 11:22:45;;;;;;;12.00;10.80;;;6.70;99.90;;;;;;637264;225;26505;-82
2021/12/04 11:27:55;;;;;;;11.20;10.10;;;6.20;99.90;;;;;;618748;221;26591;-83
2021/12/04 11:36:05;;;;;;;12.90;10.57;;;6.00;99.90;;;;;;638442;225;26864;-78
2021/12/04 11:38:10;;;;;;;11.47;10.33;;;6.10;99.90;;;;;;636278;225;26938;-79
2021/12/04 11:40:51;;;;;;;11.87;10.43;;;6.40;99.90;;;;;;637931;225;27205;-79
2021/12/04 11:43:04;;;;;;;11.17;10.17;;;6.60;99.90;;;;;;645344;222;26554;-80
2021/12/04 11:45:40;;;;;;;13.90;11.03;;;6.60;99.90;;;;;;646907;222;26504;-82
2021/12/04 11:48:02;;;;;;;11.80;10.60;;;6.80;99.90;;;;;;646423;222;26546;-82
2021/12/04 11:50:30;;;;;;;11.70;10.50;;;6.70;99.90;;;;;;646661;222;26794;-82
2021/12/04 11:52:58;;;;;;;12.17;10.80;;;6.80;99.90;;;;;;646455;222;26564;-81
2021/12/04 11:55:26;;;;;;;12.10;10.80;;;7.00;99.90;;;;;;646427;221;26586;-81
2021/12/04 11:57:53;;;;;;;12.50;11.20;;;7.10;99.90;;;;;;648385;221;26795;-82
2021/12/04 12:00:26;;;;;;;11.43;10.33;;;7.30;99.90;;;;;;648307;221;26575;-81
2021/12/04 12:02:52;;;;;;;13.03;11.37;;;7.40;99.90;;;;;;648064;221;26550;-82
2021/12/04 12:05:19;;;;;;;12.27;11.03;;;7.40;99.90;;;;;;647536;221;27191;-82
2021/12/04 12:07:49;;;;;;;12.63;11.17;;;7.50;99.90;;;;;;648317;218;26564;-82
2021/12/04 12:10:17;;;;;;;12.67;11.37;;;7.50;99.90;;;;;;648317;222;26517;-83
2021/12/04 12:12:44;;;;;;;15.33;12.33;;;7.10;99.90;;;;;;648397;222;26589;-82
2021/12/04 12:15:20;;;;;;;12.47;11.27;;;7.10;99.90;;;;;;648302;221;26894;-82
2021/12/04 12:17:47;;;;;;;13.10;11.80;;;7.00;99.90;;;;;;648222;221;26576;-83
2021/12/04 12:20:19;;;;;;;14.07;12.30;;;6.80;99.90;;;;;;648347;222;26569;-82
2021/12/04 12:22:51;;;;;;;12.60;11.40;;;6.80;99.90;;;;;;647317;221;26557;-82
2021/12/04 12:25:45;;;;;;;14.30;12.87;;;6.80;99.90;;;;;;648065;221;26829;-83
2021/12/04 12:33:27;;;;;;;13.57;12.17;;;7.20;99.90;;;;;;648332;221;26573;-83
2021/12/04 12:36:04;;;;;;;12.17;10.97;;;7.20;99.90;;;;;;648014;221;26567;-83
2021/12/04 12:38:50;;;;;;;12.33;11.03;;;7.20;99.90;;;;;;646561;222;26607;-81
2021/12/04 12:41:31;;;;;;;12.40;11.10;;;7.20;99.90;;;;;;643740;221;26566;-82
2021/12/04 12:44:10;;;;;;;11.83;10.63;;;6.80;99.90;;;;;;650030;219;26576;-82
2021/12/04 12:46:54;;;;;;;12.47;11.00;;;6.70;99.90;;;;;;649605;221;26517;-82
2021/12/04 12:49:22;;;;;;;11.50;10.30;;;6.90;99.90;;;;;;649321;221;26606;-82
2021/12/04 12:52:03;;;;;;;11.80;10.67;;;6.90;99.90;;;;;;649126;221;26603;-82
2021/12/04 12:54:31;;;;;;;12.13;10.90;;;6.60;99.90;;;;;;648925;221;26620;-82
2021/12/04 12:57:00;;;;;;;11.80;10.53;;;6.70;99.90;;;;;;648892;222;26573;-83
2021/12/04 13:11:37;;;;;;;12.07;10.77;;;6.70;99.90;;;;;;648711;222;26921;-82
2021/12/04 13:12:40;;;;;;;11.63;10.53;;;6.60;99.90;;;;;;648730;222;26521;-82
2021/12/04 13:15:10;;;;;;;11.03;9.67;;;6.50;99.90;;;;;;648675;217;26527;-82
2021/12/04 13:17:35;;;;;;;10.93;9.80;;;6.50;99.90;;;;;;648537;221;26527;-82
2021/12/04 13:20:03;;;;;;;10.40;9.40;;;6.60;99.90;;;;;;648360;222;26831;-82
2021/12/04 13:22:30;;;;;;;10.87;9.87;;;6.60;99.90;;;;;;648347;222;26574;-81
2021/12/04 13:24:57;;;;;;;11.60;10.40;;;6.70;99.90;;;;;;648326;221;26858;-82
2021/12/04 13:29:53;;;;;;;11.13;9.13;;;6.50;99.90;;;;;;648283;221;26599;-82
2021/12/04 13:32:28;;;;;;;9.40;8.50;;;6.50;99.90;;;;;;648241;221;26809;-83
2021/12/04 13:34:56;;;;;;;10.43;9.07;;;6.40;99.90;;;;;;648088;221;26613;-81
2021/12/04 13:37:24;;;;;;;9.33;8.43;;;6.40;99.90;;;;;;647958;221;26578;-81
2021/12/04 13:39:55;;;;;;;9.73;8.77;;;6.40;99.90;;;;;;648323;217;26558;-82
2021/12/04 13:42:22;;;;;;;8.23;7.43;;;6.10;99.90;;;;;;648261;221;26804;-82
2021/12/04 13:44:50;;;;;;;9.73;8.50;;;6.00;99.90;;;;;;648721;221;26525;-82
2021/12/04 13:47:17;;;;;;;8.93;8.03;;;6.00;99.90;;;;;;648443;221;26771;-83
2021/12/04 13:52:17;;;;;;;9.80;8.80;;;6.40;99.90;;;;;;648382;221;26768;-82
2021/12/04 13:54:46;;;;;;;12.30;9.13;;;6.60;99.90;;;;;;649543;219;26571;-82
2021/12/04 13:57:13;;;;;;;10.43;9.40;;;6.60;99.90;;;;;;649645;221;26795;-82
2021/12/04 13:59:41;;;;;;;9.90;8.90;;;6.70;99.90;;;;;;649320;221;26639;-82
2021/12/04 14:02:08;;;;;;;12.43;9.80;;;6.70;99.90;;;;;;649439;221;26558;-82
2021/12/04 14:04:36;;;;;;;10.20;9.20;;;6.60;99.90;;;;;;648388;221;26542;-83
2021/12/04 14:07:03;;;;;;;11.77;10.23;;;6.60;99.90;;;;;;648991;217;26866;-82
2021/12/04 14:09:32;;;;;;;11.87;10.67;;;6.50;99.90;;;;;;648981;222;26570;-82
2021/12/04 14:12:00;;;;;;;13.60;10.23;;;6.50;99.90;;;;;;648976;222;26570;-83
2021/12/04 14:14:27;;;;;;;13.47;11.93;;;6.50;99.90;;;;;;648821;222;26526;-82
2021/12/04 14:16:55;;;;;;;12.83;11.53;;;6.60;99.90;;;;;;648744;221;26596;-82
2021/12/04 14:19:23;;;;;;;17.43;13.83;;;6.50;99.90;;;;;;648691;221;26520;-82
2021/12/04 14:21:56;;;;;;;14.93;12.27;;;6.40;99.90;;;;;;648666;221;26730;-83
2021/12/04 14:24:24;;;;;;;14.20;12.70;;;6.30;99.90;;;;;;648506;217;26548;-82
2021/12/04 14:26:52;;;;;;;17.10;13.93;;;6.30;99.90;;;;;;648751;221;26495;-82
2021/12/04 14:29:20;;;;;;;14.67;13.07;;;6.40;99.90;;;;;;648682;221;26538;-82
2021/12/04 14:31:48;;;;;;;15.53;13.17;;;6.40;99.90;;;;;;648389;222;26566;-82
2021/12/04 14:34:20;;;;;;;14.57;13.07;;;6.40;99.90;;;;;;648363;222;26556;-83
2021/12/04 14:36:47;;;;;;;16.50;13.93;;;6.40;99.90;;;;;;648309;222;26577;-83
2021/12/04 14:39:14;;;;;;;17.27;14.40;;;6.50;99.90;;;;;;648263;222;26837;-82
2021/12/04 14:41:42;;;;;;;16.47;13.97;;;6.60;99.90;;;;;;647695;221;26529;-83
2021/12/04 14:44:12;;;;;;;17.07;14.10;;;6.50;99.90;;;;;;648261;221;26786;-82
2021/12/04 14:46:39;;;;;;;17.87;15.10;;;6.40;99.90;;;;;;648277;222;26566;-83
2021/12/04 14:49:09;;;;;;;17.73;14.63;;;6.30;99.90;;;;;;648243;222;26806;-82
2021/12/04 14:51:34;;;;;;;18.43;15.03;;;6.20;99.90;;;;;;648124;217;26561;-80
2021/12/04 14:54:01;;;;;;;17.17;14.80;;;6.30;99.90;;;;;;648255;222;26883;-82
2021/12/04 14:56:28;;;;;;;17.40;14.87;;;6.30;99.90;;;;;;648314;217;26563;-83